SLC Intl Airport
, Salt Lake City
Last Weather Update:08/30/2011 11:00:00 PM
Date
ETo
ETc
Rain
Irrigation
Req
Temp
Max
Temp
Min
Temp
Avg
Avg RH
Avg Wind
Avg Solar
inches
inches
incehs
inches
F
F
F
%
%
watts/m2
07/01/2011 0.28" 0.22" 0.00" 0.22" 84.4° 62.7° 73.1° 48.0% 4.6 MPH 375.3w/m2
07/02/2011 0.31" 0.25" 0.00" 0.25" 93.1° 63.3° 79.1° 43.5% 4.4 MPH 380.2w/m2
07/03/2011 0.40" 0.32" 0.00" 0.32" 100.7° 75.5° 87.6° 22.0% 8.2 MPH 367.1w/m2
07/04/2011 0.23" 0.19" 0.01" 0.18" 87.6° 77.7° 82.1° 31.4% 7.4 MPH 162.4w/m2
07/05/2011 0.25" 0.21" 0.00" 0.21" 88.5° 72.2° 79.2° 42.7% 7.6 MPH 250.2w/m2
07/06/2011 0.26" 0.22" 0.00" 0.22" 87.0° 66.2° 77.4° 49.2% 5.1 MPH 327.3w/m2
07/07/2011 0.21" 0.18" 0.01" 0.17" 84.6° 68.3° 76.8° 46.0% 5.4 MPH 229.2w/m2
07/08/2011 0.22" 0.18" 0.00" 0.18" 87.0° 67.7° 75.8° 56.4% 3.9 MPH 283.5w/m2
07/09/2011 0.32" 0.27" 0.00" 0.27" 91.1° 65.8° 77.1° 43.5% 8.2 MPH 341.5w/m2
07/10/2011 0.25" 0.21" 0.07" 0.15" 90.1° 66.5° 74.3° 50.7% 8.3 MPH 249.6w/m2
07/11/2011 0.31" 0.26" 0.08" 0.19" 92.1° 66.0° 76.9° 46.6% 7.1 MPH 333.2w/m2
07/12/2011 0.24" 0.20" 0.01" 0.19" 90.7° 68.7° 77.5° 45.8% 6.9 MPH 224.0w/m2
07/13/2011 0.32" 0.27" 0.00" 0.27" 90.8° 69.5° 79.4° 36.8% 10.2 MPH 271.1w/m2
07/14/2011 0.37" 0.31" 0.00" 0.31" 90.0° 69.8° 79.2° 28.8% 9.4 MPH 379.5w/m2
07/15/2011 0.36" 0.31" 0.00" 0.31" 91.0° 64.8° 78.6° 22.8% 7.9 MPH 380.2w/m2
07/16/2011 0.36" 0.31" 0.00" 0.31" 94.9° 65.1° 80.5° 23.4% 6.8 MPH 388.1w/m2
07/17/2011 0.36" 0.31" 0.00" 0.31" 98.4° 68.1° 83.3° 23.8% 7.8 MPH 334.6w/m2
07/18/2011 0.25" 0.21" 0.00" 0.21" 94.3° 77.6° 83.7° 37.1% 7.9 MPH 168.0w/m2
07/19/2011 0.28" 0.24" 0.30" 0.00" 92.7° 67.2° 81.5° 40.9% 9.9 MPH 210.0w/m2
07/20/2011 0.29" 0.25" 0.00" 0.25" 85.9° 62.8° 75.0° 40.5% 4.8 MPH 373.5w/m2
07/21/2011 0.30" 0.26" 0.00" 0.26" 91.1° 63.5° 78.4° 36.9% 4.7 MPH 369.9w/m2
07/22/2011 0.37" 0.32" 0.00" 0.32" 92.7° 70.9° 81.9° 23.2% 7.5 MPH 375.2w/m2
07/23/2011 0.29" 0.25" 0.00" 0.25" 88.5° 65.5° 77.3° 37.7% 4.5 MPH 367.5w/m2
07/24/2011 0.33" 0.29" 0.00" 0.29" 97.1° 67.2° 82.5° 33.6% 5.1 MPH 369.7w/m2
07/25/2011 0.24" 0.21" 0.00" 0.21" 92.6° 72.3° 81.3° 32.3% 7.6 MPH 179.7w/m2
07/26/2011 0.29" 0.25" 0.00" 0.25" 89.8° 72.7° 78.7° 45.7% 9.9 MPH 274.8w/m2
07/27/2011 0.31" 0.27" 0.00" 0.27" 87.0° 67.3° 77.7° 43.2% 7.6 MPH 338.2w/m2
07/28/2011 0.29" 0.26" 0.00" 0.26" 90.0° 67.7° 79.6° 38.7% 4.8 MPH 357.7w/m2
07/29/2011 0.30" 0.27" 0.00" 0.27" 95.8° 67.9° 82.1° 33.6% 4.4 MPH 352.2w/m2
07/30/2011 0.26" 0.23" 0.00" 0.23" 90.0° 73.0° 80.9° 36.7% 6.4 MPH 247.8w/m2
07/31/2011 0.19" 0.17" 0.48" -0.21" 87.7° 66.7° 77.7° 55.6% 6.1 MPH 177.5w/m2
Totals: 9.04" 7.70" 0.96" 6.93" 100.7° 62.7° 79.2° 38.6% 6.8 MPH 304.5w/m2